sensor_id;sensor_type;location;lat;lon;timestamp;P1;durP1;ratioP1;P2;durP2;ratioP2
19163;SDS011;9714;51.208;4.242;2022-09-02T00:00:06;14.63;;;4.30;;
19163;SDS011;9714;51.208;4.242;2022-09-02T00:02:35;12.93;;;4.80;;
19163;SDS011;9714;51.208;4.242;2022-09-02T00:05:02;14.70;;;5.20;;
19163;SDS011;9714;51.208;4.242;2022-09-02T00:07:36;16.43;;;5.07;;
19163;SDS011;9714;51.208;4.242;2022-09-02T00:12:45;17.60;;;5.30;;
19163;SDS011;9714;51.208;4.242;2022-09-02T00:15:16;17.67;;;5.53;;
19163;SDS011;9714;51.208;4.242;2022-09-02T00:17:42;17.13;;;5.20;;
19163;SDS011;9714;51.208;4.242;2022-09-02T00:20:10;20.53;;;5.30;;
19163;SDS011;9714;51.208;4.242;2022-09-02T00:22:37;14.17;;;4.87;;
19163;SDS011;9714;51.208;4.242;2022-09-02T00:25:05;13.33;;;5.20;;
19163;SDS011;9714;51.208;4.242;2022-09-02T00:27:34;20.37;;;6.27;;
19163;SDS011;9714;51.208;4.242;2022-09-02T00:30:03;16.10;;;4.70;;
19163;SDS011;9714;51.208;4.242;2022-09-02T00:32:31;12.37;;;4.97;;
19163;SDS011;9714;51.208;4.242;2022-09-02T00:34:59;19.97;;;5.13;;
19163;SDS011;9714;51.208;4.242;2022-09-02T00:37:26;18.67;;;5.17;;
19163;SDS011;9714;51.208;4.242;2022-09-02T00:39:53;17.47;;;5.37;;
19163;SDS011;9714;51.208;4.242;2022-09-02T00:42:22;17.43;;;5.00;;
19163;SDS011;9714;51.208;4.242;2022-09-02T00:44:50;19.07;;;5.10;;
19163;SDS011;9714;51.208;4.242;2022-09-02T00:47:21;24.13;;;5.20;;
19163;SDS011;9714;51.208;4.242;2022-09-02T00:49:50;13.73;;;5.27;;
19163;SDS011;9714;51.208;4.242;2022-09-02T00:52:20;17.93;;;5.70;;
19163;SDS011;9714;51.208;4.242;2022-09-02T00:54:51;14.43;;;5.23;;
19163;SDS011;9714;51.208;4.242;2022-09-02T00:57:21;15.13;;;5.57;;
19163;SDS011;9714;51.208;4.242;2022-09-02T00:59:52;22.20;;;5.33;;
19163;SDS011;9714;51.208;4.242;2022-09-02T01:02:25;17.43;;;5.50;;
19163;SDS011;9714;51.208;4.242;2022-09-02T01:04:55;13.90;;;5.57;;
19163;SDS011;9714;51.208;4.242;2022-09-02T01:07:23;18.63;;;6.03;;
19163;SDS011;9714;51.208;4.242;2022-09-02T01:09:54;18.97;;;5.73;;
19163;SDS011;9714;51.208;4.242;2022-09-02T01:12:21;14.53;;;5.80;;
19163;SDS011;9714;51.208;4.242;2022-09-02T01:14:51;14.90;;;4.87;;
19163;SDS011;9714;51.208;4.242;2022-09-02T01:17:18;16.43;;;5.53;;
19163;SDS011;9714;51.208;4.242;2022-09-02T01:19:48;12.80;;;5.40;;
19163;SDS011;9714;51.208;4.242;2022-09-02T01:22:21;12.97;;;5.00;;
19163;SDS011;9714;51.208;4.242;2022-09-02T01:24:49;18.40;;;5.50;;
19163;SDS011;9714;51.208;4.242;2022-09-02T01:27:18;15.87;;;5.87;;
19163;SDS011;9714;51.208;4.242;2022-09-02T01:29:49;16.77;;;5.40;;
19163;SDS011;9714;51.208;4.242;2022-09-02T01:32:18;16.87;;;5.17;;
19163;SDS011;9714;51.208;4.242;2022-09-02T01:34:45;16.80;;;5.20;;
19163;SDS011;9714;51.208;4.242;2022-09-02T01:37:12;18.83;;;6.03;;
19163;SDS011;9714;51.208;4.242;2022-09-02T01:39:40;15.37;;;5.30;;
19163;SDS011;9714;51.208;4.242;2022-09-02T01:42:07;14.67;;;5.07;;
19163;SDS011;9714;51.208;4.242;2022-09-02T01:44:35;18.37;;;5.53;;
19163;SDS011;9714;51.208;4.242;2022-09-02T01:47:08;16.13;;;5.30;;
19163;SDS011;9714;51.208;4.242;2022-09-02T01:49:35;15.67;;;4.87;;
19163;SDS011;9714;51.208;4.242;2022-09-02T01:52:02;18.17;;;5.80;;
19163;SDS011;9714;51.208;4.242;2022-09-02T01:54:30;16.77;;;5.07;;
19163;SDS011;9714;51.208;4.242;2022-09-02T01:56:58;15.40;;;5.07;;
19163;SDS011;9714;51.208;4.242;2022-09-02T01:59:25;15.50;;;4.90;;
19163;SDS011;9714;51.208;4.242;2022-09-02T02:01:53;15.90;;;5.63;;
19163;SDS011;9714;51.208;4.242;2022-09-02T02:04:20;17.93;;;5.77;;
19163;SDS011;9714;51.208;4.242;2022-09-02T02:06:49;15.07;;;4.80;;
19163;SDS011;9714;51.208;4.242;2022-09-02T02:09:17;12.53;;;4.97;;
19163;SDS011;9714;51.208;4.242;2022-09-02T02:11:44;13.43;;;5.13;;
19163;SDS011;9714;51.208;4.242;2022-09-02T02:14:13;17.77;;;5.57;;
19163;SDS011;9714;51.208;4.242;2022-09-02T02:16:41;13.13;;;4.60;;
19163;SDS011;9714;51.208;4.242;2022-09-02T02:19:08;16.07;;;5.30;;
19163;SDS011;9714;51.208;4.242;2022-09-02T02:21:36;12.97;;;4.80;;
19163;SDS011;9714;51.208;4.242;2022-09-02T02:24:03;20.67;;;5.57;;
19163;SDS011;9714;51.208;4.242;2022-09-02T02:26:32;14.27;;;4.80;;
19163;SDS011;9714;51.208;4.242;2022-09-02T02:29:00;15.87;;;4.90;;
19163;SDS011;9714;51.208;4.242;2022-09-02T02:31:29;18.63;;;5.60;;
19163;SDS011;9714;51.208;4.242;2022-09-02T02:33:56;14.07;;;4.83;;
19163;SDS011;9714;51.208;4.242;2022-09-02T02:36:23;11.80;;;4.87;;
19163;SDS011;9714;51.208;4.242;2022-09-02T02:38:51;12.97;;;4.60;;
19163;SDS011;9714;51.208;4.242;2022-09-02T02:41:18;18.23;;;4.70;;
19163;SDS011;9714;51.208;4.242;2022-09-02T02:43:45;15.27;;;4.57;;
19163;SDS011;9714;51.208;4.242;2022-09-02T02:46:12;12.33;;;4.63;;
19163;SDS011;9714;51.208;4.242;2022-09-02T02:48:40;15.03;;;5.37;;
19163;SDS011;9714;51.208;4.242;2022-09-02T02:51:08;13.97;;;5.17;;
19163;SDS011;9714;51.208;4.242;2022-09-02T02:53:35;12.00;;;4.70;;
19163;SDS011;9714;51.208;4.242;2022-09-02T02:56:03;17.47;;;4.63;;
19163;SDS011;9714;51.208;4.242;2022-09-02T02:58:30;15.53;;;4.57;;
19163;SDS011;9714;51.208;4.242;2022-09-02T03:00:57;10.73;;;4.00;;
19163;SDS011;9714;51.208;4.242;2022-09-02T03:03:25;12.27;;;4.70;;
19163;SDS011;9714;51.208;4.242;2022-09-02T03:05:54;18.00;;;5.13;;
19163;SDS011;9714;51.208;4.242;2022-09-02T03:08:21;13.47;;;4.90;;
19163;SDS011;9714;51.208;4.242;2022-09-02T03:10:51;12.07;;;4.33;;
19163;SDS011;9714;51.208;4.242;2022-09-02T03:13:20;14.60;;;4.33;;
19163;SDS011;9714;51.208;4.242;2022-09-02T03:15:47;11.63;;;3.97;;
19163;SDS011;9714;51.208;4.242;2022-09-02T03:18:14;12.47;;;4.87;;
19163;SDS011;9714;51.208;4.242;2022-09-02T03:20:42;11.87;;;4.93;;
19163;SDS011;9714;51.208;4.242;2022-09-02T03:23:10;10.20;;;4.47;;
19163;SDS011;9714;51.208;4.242;2022-09-02T03:25:39;20.57;;;5.10;;
19163;SDS011;9714;51.208;4.242;2022-09-02T03:28:08;10.87;;;4.07;;
19163;SDS011;9714;51.208;4.242;2022-09-02T03:30:35;16.03;;;4.47;;
19163;SDS011;9714;51.208;4.242;2022-09-02T03:33:03;20.63;;;4.87;;
19163;SDS011;9714;51.208;4.242;2022-09-02T03:35:32;20.00;;;4.80;;
19163;SDS011;9714;51.208;4.242;2022-09-02T03:38:02;15.00;;;4.67;;
19163;SDS011;9714;51.208;4.242;2022-09-02T03:40:31;12.07;;;5.00;;
19163;SDS011;9714;51.208;4.242;2022-09-02T03:42:58;17.77;;;5.00;;
19163;SDS011;9714;51.208;4.242;2022-09-02T03:45:25;14.13;;;5.03;;
19163;SDS011;9714;51.208;4.242;2022-09-02T03:47:53;16.37;;;5.17;;
19163;SDS011;9714;51.208;4.242;2022-09-02T03:50:21;14.37;;;5.27;;
19163;SDS011;9714;51.208;4.242;2022-09-02T03:52:50;15.93;;;5.67;;
19163;SDS011;9714;51.208;4.242;2022-09-02T03:55:19;21.50;;;5.40;;
19163;SDS011;9714;51.208;4.242;2022-09-02T03:57:47;13.20;;;4.60;;
19163;SDS011;9714;51.208;4.242;2022-09-02T04:00:15;13.17;;;4.63;;
19163;SDS011;9714;51.208;4.242;2022-09-02T04:02:44;16.43;;;4.97;;
19163;SDS011;9714;51.208;4.242;2022-09-02T04:05:11;20.53;;;4.60;;
19163;SDS011;9714;51.208;4.242;2022-09-02T04:07:38;15.50;;;5.10;;
19163;SDS011;9714;51.208;4.242;2022-09-02T04:10:07;16.87;;;4.73;;
19163;SDS011;9714;51.208;4.242;2022-09-02T04:12:35;15.60;;;4.67;;
19163;SDS011;9714;51.208;4.242;2022-09-02T04:15:05;17.33;;;5.13;;
19163;SDS011;9714;51.208;4.242;2022-09-02T04:17:34;15.20;;;5.43;;
19163;SDS011;9714;51.208;4.242;2022-09-02T04:20:01;18.73;;;5.40;;
19163;SDS011;9714;51.208;4.242;2022-09-02T04:22:29;13.10;;;5.07;;
19163;SDS011;9714;51.208;4.242;2022-09-02T04:24:56;17.30;;;5.00;;
19163;SDS011;9714;51.208;4.242;2022-09-02T04:27:24;21.27;;;5.47;;
19163;SDS011;9714;51.208;4.242;2022-09-02T04:29:51;17.47;;;5.40;;
19163;SDS011;9714;51.208;4.242;2022-09-02T04:32:19;13.37;;;4.60;;
19163;SDS011;9714;51.208;4.242;2022-09-02T04:34:47;19.60;;;5.40;;
19163;SDS011;9714;51.208;4.242;2022-09-02T04:37:14;13.57;;;5.17;;
19163;SDS011;9714;51.208;4.242;2022-09-02T04:39:41;14.80;;;5.10;;
19163;SDS011;9714;51.208;4.242;2022-09-02T04:42:08;18.70;;;5.23;;
19163;SDS011;9714;51.208;4.242;2022-09-02T04:44:35;15.50;;;4.70;;
19163;SDS011;9714;51.208;4.242;2022-09-02T04:47:03;17.77;;;5.00;;
19163;SDS011;9714;51.208;4.242;2022-09-02T04:49:31;19.70;;;5.57;;
19163;SDS011;9714;51.208;4.242;2022-09-02T04:51:59;19.70;;;5.03;;
19163;SDS011;9714;51.208;4.242;2022-09-02T04:54:26;20.03;;;4.97;;
19163;SDS011;9714;51.208;4.242;2022-09-02T04:56:53;22.23;;;4.97;;
19163;SDS011;9714;51.208;4.242;2022-09-02T04:59:20;16.90;;;4.97;;
19163;SDS011;9714;51.208;4.242;2022-09-02T05:01:47;14.67;;;4.40;;
19163;SDS011;9714;51.208;4.242;2022-09-02T05:04:15;20.10;;;5.20;;
19163;SDS011;9714;51.208;4.242;2022-09-02T05:06:43;13.80;;;4.53;;
19163;SDS011;9714;51.208;4.242;2022-09-02T05:09:10;14.80;;;5.10;;
19163;SDS011;9714;51.208;4.242;2022-09-02T05:11:39;16.73;;;4.17;;
19163;SDS011;9714;51.208;4.242;2022-09-02T05:14:06;15.80;;;5.00;;
19163;SDS011;9714;51.208;4.242;2022-09-02T05:16:35;17.50;;;4.47;;
19163;SDS011;9714;51.208;4.242;2022-09-02T05:19:04;18.27;;;5.20;;
19163;SDS011;9714;51.208;4.242;2022-09-02T05:21:35;14.70;;;4.77;;
19163;SDS011;9714;51.208;4.242;2022-09-02T05:24:09;13.80;;;4.50;;
19163;SDS011;9714;51.208;4.242;2022-09-02T05:29:45;16.00;;;3.93;;
19163;SDS011;9714;51.208;4.242;2022-09-02T05:32:14;15.07;;;4.73;;
19163;SDS011;9714;51.208;4.242;2022-09-02T05:34:41;17.47;;;4.67;;
19163;SDS011;9714;51.208;4.242;2022-09-02T05:37:08;16.47;;;4.50;;
19163;SDS011;9714;51.208;4.242;2022-09-02T05:39:36;16.80;;;4.23;;
19163;SDS011;9714;51.208;4.242;2022-09-02T05:42:03;15.00;;;4.53;;
19163;SDS011;9714;51.208;4.242;2022-09-02T05:44:30;15.43;;;4.60;;
19163;SDS011;9714;51.208;4.242;2022-09-02T05:46:57;21.23;;;5.07;;
19163;SDS011;9714;51.208;4.242;2022-09-02T05:49:24;15.17;;;4.27;;
19163;SDS011;9714;51.208;4.242;2022-09-02T05:51:53;16.73;;;5.90;;
19163;SDS011;9714;51.208;4.242;2022-09-02T05:54:22;25.17;;;4.90;;
19163;SDS011;9714;51.208;4.242;2022-09-02T05:57:02;17.33;;;4.77;;
19163;SDS011;9714;51.208;4.242;2022-09-02T06:02:06;15.53;;;4.60;;
19163;SDS011;9714;51.208;4.242;2022-09-02T06:07:08;22.03;;;4.73;;
19163;SDS011;9714;51.208;4.242;2022-09-02T06:09:41;19.03;;;5.07;;
19163;SDS011;9714;51.208;4.242;2022-09-02T06:12:10;18.37;;;4.80;;
19163;SDS011;9714;51.208;4.242;2022-09-02T06:14:38;15.63;;;4.70;;
19163;SDS011;9714;51.208;4.242;2022-09-02T06:17:07;18.10;;;4.93;;
19163;SDS011;9714;51.208;4.242;2022-09-02T06:19:35;24.40;;;5.20;;
19163;SDS011;9714;51.208;4.242;2022-09-02T06:22:03;25.60;;;4.90;;
19163;SDS011;9714;51.208;4.242;2022-09-02T06:24:30;20.20;;;4.73;;
19163;SDS011;9714;51.208;4.242;2022-09-02T06:26:58;16.80;;;5.17;;
19163;SDS011;9714;51.208;4.242;2022-09-02T06:29:27;24.30;;;5.10;;
19163;SDS011;9714;51.208;4.242;2022-09-02T06:31:54;22.50;;;5.20;;
19163;SDS011;9714;51.208;4.242;2022-09-02T06:34:21;13.40;;;4.90;;
19163;SDS011;9714;51.208;4.242;2022-09-02T06:36:50;19.93;;;4.93;;
19163;SDS011;9714;51.208;4.242;2022-09-02T06:39:18;33.00;;;4.57;;
19163;SDS011;9714;51.208;4.242;2022-09-02T06:41:47;15.47;;;4.67;;
19163;SDS011;9714;51.208;4.242;2022-09-02T06:44:14;17.33;;;4.43;;
19163;SDS011;9714;51.208;4.242;2022-09-02T06:46:47;18.43;;;4.20;;
19163;SDS011;9714;51.208;4.242;2022-09-02T06:49:19;23.30;;;5.33;;
19163;SDS011;9714;51.208;4.242;2022-09-02T06:51:47;20.90;;;5.87;;
19163;SDS011;9714;51.208;4.242;2022-09-02T06:54:16;18.40;;;4.53;;
19163;SDS011;9714;51.208;4.242;2022-09-02T06:56:45;21.73;;;4.70;;
19163;SDS011;9714;51.208;4.242;2022-09-02T06:59:13;25.53;;;5.43;;
19163;SDS011;9714;51.208;4.242;2022-09-02T07:01:40;18.00;;;4.83;;
19163;SDS011;9714;51.208;4.242;2022-09-02T07:04:09;19.40;;;4.20;;
19163;SDS011;9714;51.208;4.242;2022-09-02T07:06:54;19.10;;;4.83;;
19163;SDS011;9714;51.208;4.242;2022-09-02T07:09:22;22.20;;;4.93;;
19163;SDS011;9714;51.208;4.242;2022-09-02T07:11:55;19.27;;;4.40;;
19163;SDS011;9714;51.208;4.242;2022-09-02T07:14:24;19.45;;;4.65;;
19163;SDS011;9714;51.208;4.242;2022-09-02T07:16:52;19.13;;;4.15;;
19163;SDS011;9714;51.208;4.242;2022-09-02T07:19:22;20.70;;;4.75;;
19163;SDS011;9714;51.208;4.242;2022-09-02T07:21:50;13.63;;;4.07;;
19163;SDS011;9714;51.208;4.242;2022-09-02T07:24:17;12.88;;;4.07;;
19163;SDS011;9714;51.208;4.242;2022-09-02T07:26:44;21.33;;;4.18;;
19163;SDS011;9714;51.208;4.242;2022-09-02T07:29:12;14.35;;;4.43;;
19163;SDS011;9714;51.208;4.242;2022-09-02T07:31:42;14.10;;;4.13;;
19163;SDS011;9714;51.208;4.242;2022-09-02T07:34:11;14.98;;;4.60;;
19163;SDS011;9714;51.208;4.242;2022-09-02T07:36:40;19.48;;;4.15;;
19163;SDS011;9714;51.208;4.242;2022-09-02T07:39:10;16.85;;;4.32;;
19163;SDS011;9714;51.208;4.242;2022-09-02T07:41:42;17.00;;;3.90;;
19163;SDS011;9714;51.208;4.242;2022-09-02T07:44:10;14.25;;;4.03;;
19163;SDS011;9714;51.208;4.242;2022-09-02T07:46:37;18.75;;;4.30;;
19163;SDS011;9714;51.208;4.242;2022-09-02T07:49:06;12.63;;;3.60;;
19163;SDS011;9714;51.208;4.242;2022-09-02T07:51:35;13.48;;;4.18;;
19163;SDS011;9714;51.208;4.242;2022-09-02T07:54:05;14.50;;;3.50;;
19163;SDS011;9714;51.208;4.242;2022-09-02T07:56:33;15.15;;;4.07;;
19163;SDS011;9714;51.208;4.242;2022-09-02T07:59:00;16.10;;;3.92;;
19163;SDS011;9714;51.208;4.242;2022-09-02T08:01:28;16.45;;;3.92;;
19163;SDS011;9714;51.208;4.242;2022-09-02T08:03:55;18.25;;;3.47;;
19163;SDS011;9714;51.208;4.242;2022-09-02T08:06:23;11.55;;;3.20;;
19163;SDS011;9714;51.208;4.242;2022-09-02T08:08:51;10.18;;;3.13;;
19163;SDS011;9714;51.208;4.242;2022-09-02T08:11:21;9.13;;;3.10;;
19163;SDS011;9714;51.208;4.242;2022-09-02T08:13:48;9.23;;;2.88;;
19163;SDS011;9714;51.208;4.242;2022-09-02T08:16:15;10.98;;;2.80;;
19163;SDS011;9714;51.208;4.242;2022-09-02T08:18:42;10.93;;;3.33;;
19163;SDS011;9714;51.208;4.242;2022-09-02T08:21:09;17.17;;;3.83;;
19163;SDS011;9714;51.208;4.242;2022-09-02T08:23:38;8.80;;;2.95;;
19163;SDS011;9714;51.208;4.242;2022-09-02T08:26:05;15.82;;;3.00;;
19163;SDS011;9714;51.208;4.242;2022-09-02T08:28:35;12.85;;;3.08;;
19163;SDS011;9714;51.208;4.242;2022-09-02T08:31:04;8.45;;;2.67;;
19163;SDS011;9714;51.208;4.242;2022-09-02T08:33:32;9.52;;;3.17;;
19163;SDS011;9714;51.208;4.242;2022-09-02T08:36:00;10.55;;;2.92;;
19163;SDS011;9714;51.208;4.242;2022-09-02T08:38:29;13.95;;;3.25;;
19163;SDS011;9714;51.208;4.242;2022-09-02T08:40:57;8.82;;;2.63;;
19163;SDS011;9714;51.208;4.242;2022-09-02T08:43:26;13.15;;;3.03;;
19163;SDS011;9714;51.208;4.242;2022-09-02T08:46:05;8.65;;;2.45;;
19163;SDS011;9714;51.208;4.242;2022-09-02T08:48:37;10.65;;;2.58;;
19163;SDS011;9714;51.208;4.242;2022-09-02T08:51:09;14.05;;;2.88;;
19163;SDS011;9714;51.208;4.242;2022-09-02T08:53:46;15.07;;;3.58;;
19163;SDS011;9714;51.208;4.242;2022-09-02T08:56:16;10.15;;;3.42;;
19163;SDS011;9714;51.208;4.242;2022-09-02T08:58:44;12.77;;;3.28;;
19163;SDS011;9714;51.208;4.242;2022-09-02T09:01:17;9.70;;;3.13;;
19163;SDS011;9714;51.208;4.242;2022-09-02T09:04:03;17.98;;;4.25;;
19163;SDS011;9714;51.208;4.242;2022-09-02T09:06:40;9.02;;;2.88;;
19163;SDS011;9714;51.208;4.242;2022-09-02T09:09:20;8.57;;;2.67;;
19163;SDS011;9714;51.208;4.242;2022-09-02T09:11:57;10.95;;;3.10;;
19163;SDS011;9714;51.208;4.242;2022-09-02T09:14:30;8.55;;;2.60;;
19163;SDS011;9714;51.208;4.242;2022-09-02T09:17:09;12.27;;;2.67;;
19163;SDS011;9714;51.208;4.242;2022-09-02T09:19:46;10.07;;;2.58;;
19163;SDS011;9714;51.208;4.242;2022-09-02T09:22:17;13.55;;;3.08;;
19163;SDS011;9714;51.208;4.242;2022-09-02T09:24:46;12.10;;;2.97;;
19163;SDS011;9714;51.208;4.242;2022-09-02T09:27:16;17.83;;;3.30;;
19163;SDS011;9714;51.208;4.242;2022-09-02T09:29:44;11.43;;;3.17;;
19163;SDS011;9714;51.208;4.242;2022-09-02T09:32:15;9.02;;;2.97;;
19163;SDS011;9714;51.208;4.242;2022-09-02T09:34:56;10.45;;;3.22;;
19163;SDS011;9714;51.208;4.242;2022-09-02T09:37:28;9.48;;;3.08;;
19163;SDS011;9714;51.208;4.242;2022-09-02T09:39:56;9.30;;;2.63;;
19163;SDS011;9714;51.208;4.242;2022-09-02T09:42:31;15.55;;;3.22;;
19163;SDS011;9714;51.208;4.242;2022-09-02T09:44:59;7.72;;;2.70;;
19163;SDS011;9714;51.208;4.242;2022-09-02T09:47:43;15.27;;;3.50;;
19163;SDS011;9714;51.208;4.242;2022-09-02T09:50:11;16.08;;;3.38;;
19163;SDS011;9714;51.208;4.242;2022-09-02T09:52:41;15.70;;;3.38;;
19163;SDS011;9714;51.208;4.242;2022-09-02T09:55:10;15.75;;;3.28;;
19163;SDS011;9714;51.208;4.242;2022-09-02T09:57:40;12.90;;;3.05;;
19163;SDS011;9714;51.208;4.242;2022-09-02T10:02:59;13.88;;;2.80;;
19163;SDS011;9714;51.208;4.242;2022-09-02T10:05:29;8.32;;;2.47;;
19163;SDS011;9714;51.208;4.242;2022-09-02T10:07:59;7.28;;;2.88;;
19163;SDS011;9714;51.208;4.242;2022-09-02T10:10:27;13.95;;;3.08;;
19163;SDS011;9714;51.208;4.242;2022-09-02T10:12:57;14.05;;;2.50;;
19163;SDS011;9714;51.208;4.242;2022-09-02T10:15:28;14.38;;;2.92;;
19163;SDS011;9714;51.208;4.242;2022-09-02T10:18:08;11.02;;;2.88;;
19163;SDS011;9714;51.208;4.242;2022-09-02T10:20:48;9.73;;;2.58;;
19163;SDS011;9714;51.208;4.242;2022-09-02T10:23:27;11.88;;;2.38;;
19163;SDS011;9714;51.208;4.242;2022-09-02T10:26:04;9.32;;;2.53;;
19163;SDS011;9714;51.208;4.242;2022-09-02T10:31:33;7.85;;;2.63;;
19163;SDS011;9714;51.208;4.242;2022-09-02T10:34:09;6.43;;;2.10;;
19163;SDS011;9714;51.208;4.242;2022-09-02T10:36:53;10.05;;;2.65;;
19163;SDS011;9714;51.208;4.242;2022-09-02T10:39:42;9.35;;;2.53;;
19163;SDS011;9714;51.208;4.242;2022-09-02T10:42:21;9.90;;;2.60;;
19163;SDS011;9714;51.208;4.242;2022-09-02T10:44:58;11.55;;;2.83;;
19163;SDS011;9714;51.208;4.242;2022-09-02T10:47:35;7.80;;;2.08;;
19163;SDS011;9714;51.208;4.242;2022-09-02T10:50:12;7.68;;;2.45;;
19163;SDS011;9714;51.208;4.242;2022-09-02T10:52:55;10.05;;;2.47;;
19163;SDS011;9714;51.208;4.242;2022-09-02T10:55:35;7.80;;;2.45;;
19163;SDS011;9714;51.208;4.242;2022-09-02T10:58:11;4.63;;;2.03;;
19163;SDS011;9714;51.208;4.242;2022-09-02T11:00:46;8.10;;;2.13;;
19163;SDS011;9714;51.208;4.242;2022-09-02T11:03:17;7.65;;;1.95;;
19163;SDS011;9714;51.208;4.242;2022-09-02T11:05:51;7.53;;;1.85;;
19163;SDS011;9714;51.208;4.242;2022-09-02T11:08:22;8.07;;;2.13;;
19163;SDS011;9714;51.208;4.242;2022-09-02T11:10:55;7.10;;;2.13;;
19163;SDS011;9714;51.208;4.242;2022-09-02T11:13:32;11.13;;;2.45;;
19163;SDS011;9714;51.208;4.242;2022-09-02T11:16:06;11.18;;;2.25;;
19163;SDS011;9714;51.208;4.242;2022-09-02T11:18:40;8.18;;;2.00;;
19163;SDS011;9714;51.208;4.242;2022-09-02T11:21:20;4.90;;;1.90;;
19163;SDS011;9714;51.208;4.242;2022-09-02T11:23:56;6.70;;;2.15;;
19163;SDS011;9714;51.208;4.242;2022-09-02T11:26:30;4.93;;;2.03;;
19163;SDS011;9714;51.208;4.242;2022-09-02T11:29:04;7.32;;;2.25;;
19163;SDS011;9714;51.208;4.242;2022-09-02T11:31:37;7.13;;;2.10;;
19163;SDS011;9714;51.208;4.242;2022-09-02T11:34:11;9.57;;;2.20;;
19163;SDS011;9714;51.208;4.242;2022-09-02T11:36:46;8.80;;;2.15;;
19163;SDS011;9714;51.208;4.242;2022-09-02T11:39:16;9.85;;;2.05;;
19163;SDS011;9714;51.208;4.242;2022-09-02T11:41:54;8.45;;;1.90;;
19163;SDS011;9714;51.208;4.242;2022-09-02T11:44:39;6.35;;;2.00;;
19163;SDS011;9714;51.208;4.242;2022-09-02T11:47:30;4.88;;;1.70;;
19163;SDS011;9714;51.208;4.242;2022-09-02T11:50:10;7.18;;;1.75;;
19163;SDS011;9714;51.208;4.242;2022-09-02T11:52:54;5.25;;;1.65;;
19163;SDS011;9714;51.208;4.242;2022-09-02T11:55:30;5.25;;;1.73;;
19163;SDS011;9714;51.208;4.242;2022-09-02T11:58:02;17.90;;;2.58;;
19163;SDS011;9714;51.208;4.242;2022-09-02T12:00:30;5.55;;;1.60;;
19163;SDS011;9714;51.208;4.242;2022-09-02T12:03:11;6.30;;;1.52;;
19163;SDS011;9714;51.208;4.242;2022-09-02T12:05:47;4.95;;;1.60;;
19163;SDS011;9714;51.208;4.242;2022-09-02T12:11:41;5.65;;;1.48;;
19163;SDS011;9714;51.208;4.242;2022-09-02T12:17:37;5.28;;;1.27;;
19163;SDS011;9714;51.208;4.242;2022-09-02T12:29:44;7.20;;;1.60;;
19163;SDS011;9714;51.208;4.242;2022-09-02T12:32:11;5.53;;;1.52;;
19163;SDS011;9714;51.208;4.242;2022-09-02T12:34:54;3.83;;;1.20;;
19163;SDS011;9714;51.208;4.242;2022-09-02T12:40:18;7.15;;;1.50;;
19163;SDS011;9714;51.208;4.242;2022-09-02T12:42:57;5.05;;;1.30;;
19163;SDS011;9714;51.208;4.242;2022-09-02T12:45:27;8.20;;;1.77;;
19163;SDS011;9714;51.208;4.242;2022-09-02T12:47:58;5.65;;;1.42;;
19163;SDS011;9714;51.208;4.242;2022-09-02T12:50:49;5.75;;;1.30;;
19163;SDS011;9714;51.208;4.242;2022-09-02T12:56:15;6.20;;;1.40;;
19163;SDS011;9714;51.208;4.242;2022-09-02T12:58:48;2.70;;;1.50;;
19163;SDS011;9714;51.208;4.242;2022-09-02T13:01:18;3.78;;;1.50;;
19163;SDS011;9714;51.208;4.242;2022-09-02T13:03:54;5.10;;;1.60;;
19163;SDS011;9714;51.208;4.242;2022-09-02T13:06:47;5.25;;;1.42;;
19163;SDS011;9714;51.208;4.242;2022-09-02T13:09:40;3.70;;;1.50;;
19163;SDS011;9714;51.208;4.242;2022-09-02T13:12:27;4.93;;;1.30;;
19163;SDS011;9714;51.208;4.242;2022-09-02T13:15:37;4.82;;;1.55;;
19163;SDS011;9714;51.208;4.242;2022-09-02T13:21:40;5.13;;;1.20;;
19163;SDS011;9714;51.208;4.242;2022-09-02T13:30:24;4.07;;;1.20;;
19163;SDS011;9714;51.208;4.242;2022-09-02T13:33:05;3.80;;;1.17;;
19163;SDS011;9714;51.208;4.242;2022-09-02T13:35:36;3.63;;;1.15;;
19163;SDS011;9714;51.208;4.242;2022-09-02T13:38:07;3.22;;;1.45;;
19163;SDS011;9714;51.208;4.242;2022-09-02T13:40:36;2.15;;;1.08;;
19163;SDS011;9714;51.208;4.242;2022-09-02T13:43:17;5.18;;;1.42;;
19163;SDS011;9714;51.208;4.242;2022-09-02T13:45:46;6.63;;;1.60;;
19163;SDS011;9714;51.208;4.242;2022-09-02T13:48:16;3.63;;;1.20;;
19163;SDS011;9714;51.208;4.242;2022-09-02T13:50:45;5.18;;;1.45;;
19163;SDS011;9714;51.208;4.242;2022-09-02T13:53:17;1.88;;;0.82;;
19163;SDS011;9714;51.208;4.242;2022-09-02T13:55:50;4.68;;;1.00;;
19163;SDS011;9714;51.208;4.242;2022-09-02T13:58:33;6.20;;;1.70;;
19163;SDS011;9714;51.208;4.242;2022-09-02T14:01:22;6.07;;;1.55;;
19163;SDS011;9714;51.208;4.242;2022-09-02T14:03:55;5.75;;;1.17;;
19163;SDS011;9714;51.208;4.242;2022-09-02T14:06:24;5.60;;;1.27;;
19163;SDS011;9714;51.208;4.242;2022-09-02T14:08:54;4.35;;;1.13;;
19163;SDS011;9714;51.208;4.242;2022-09-02T14:11:23;4.43;;;1.40;;
19163;SDS011;9714;51.208;4.242;2022-09-02T14:13:52;4.60;;;1.38;;
19163;SDS011;9714;51.208;4.242;2022-09-02T14:16:28;7.65;;;1.40;;
19163;SDS011;9714;51.208;4.242;2022-09-02T14:19:09;5.43;;;1.38;;
19163;SDS011;9714;51.208;4.242;2022-09-02T14:21:48;4.60;;;1.10;;
19163;SDS011;9714;51.208;4.242;2022-09-02T14:24:19;6.50;;;1.35;;
19163;SDS011;9714;51.208;4.242;2022-09-02T14:26:48;3.63;;;1.27;;
19163;SDS011;9714;51.208;4.242;2022-09-02T14:29:18;5.22;;;1.25;;
19163;SDS011;9714;51.208;4.242;2022-09-02T14:31:46;3.95;;;1.15;;
19163;SDS011;9714;51.208;4.242;2022-09-02T14:34:32;4.80;;;1.30;;
19163;SDS011;9714;51.208;4.242;2022-09-02T14:37:00;7.47;;;1.83;;
19163;SDS011;9714;51.208;4.242;2022-09-02T14:39:49;4.55;;;1.00;;
19163;SDS011;9714;51.208;4.242;2022-09-02T14:42:29;7.78;;;1.50;;
19163;SDS011;9714;51.208;4.242;2022-09-02T14:44:56;9.18;;;1.42;;
19163;SDS011;9714;51.208;4.242;2022-09-02T14:47:24;7.72;;;1.60;;
19163;SDS011;9714;51.208;4.242;2022-09-02T14:49:53;6.60;;;1.13;;
19163;SDS011;9714;51.208;4.242;2022-09-02T14:52:22;7.57;;;1.45;;
19163;SDS011;9714;51.208;4.242;2022-09-02T14:54:51;2.60;;;1.10;;
19163;SDS011;9714;51.208;4.242;2022-09-02T14:57:21;5.72;;;1.13;;
19163;SDS011;9714;51.208;4.242;2022-09-02T14:59:49;6.07;;;1.33;;
19163;SDS011;9714;51.208;4.242;2022-09-02T15:02:23;7.25;;;1.48;;
19163;SDS011;9714;51.208;4.242;2022-09-02T15:04:57;10.05;;;1.63;;
19163;SDS011;9714;51.208;4.242;2022-09-02T15:07:26;5.80;;;1.10;;
19163;SDS011;9714;51.208;4.242;2022-09-02T15:09:53;3.63;;;1.20;;
19163;SDS011;9714;51.208;4.242;2022-09-02T15:12:20;8.55;;;1.15;;
19163;SDS011;9714;51.208;4.242;2022-09-02T15:14:49;4.93;;;1.30;;
19163;SDS011;9714;51.208;4.242;2022-09-02T15:17:16;5.45;;;1.17;;
19163;SDS011;9714;51.208;4.242;2022-09-02T15:19:44;7.57;;;1.35;;
19163;SDS011;9714;51.208;4.242;2022-09-02T15:22:14;4.05;;;1.50;;
19163;SDS011;9714;51.208;4.242;2022-09-02T15:24:42;8.10;;;1.30;;
19163;SDS011;9714;51.208;4.242;2022-09-02T15:27:09;7.13;;;1.33;;
19163;SDS011;9714;51.208;4.242;2022-09-02T15:29:36;5.85;;;1.50;;
19163;SDS011;9714;51.208;4.242;2022-09-02T15:32:04;5.55;;;1.10;;
19163;SDS011;9714;51.208;4.242;2022-09-02T15:34:31;2.97;;;1.10;;
19163;SDS011;9714;51.208;4.242;2022-09-02T15:36:59;4.85;;;1.17;;
19163;SDS011;9714;51.208;4.242;2022-09-02T15:39:28;5.20;;;1.48;;
19163;SDS011;9714;51.208;4.242;2022-09-02T15:41:55;7.57;;;1.40;;
19163;SDS011;9714;51.208;4.242;2022-09-02T15:44:22;4.75;;;1.80;;
19163;SDS011;9714;51.208;4.242;2022-09-02T15:46:51;5.35;;;1.58;;
19163;SDS011;9714;51.208;4.242;2022-09-02T15:49:19;6.78;;;1.75;;
19163;SDS011;9714;51.208;4.242;2022-09-02T15:51:47;6.97;;;1.70;;
19163;SDS011;9714;51.208;4.242;2022-09-02T15:54:16;5.72;;;1.67;;
19163;SDS011;9714;51.208;4.242;2022-09-02T15:56:46;5.68;;;2.00;;
19163;SDS011;9714;51.208;4.242;2022-09-02T15:59:15;9.32;;;1.50;;
19163;SDS011;9714;51.208;4.242;2022-09-02T16:01:45;6.53;;;1.83;;